createdAt,value
2022-12-31T00:01:04.191Z,14.40
2022-12-31T00:03:32.155Z,14.20
2022-12-31T00:08:28.316Z,14.30
2022-12-31T00:13:25.683Z,14.20
2022-12-31T00:18:21.677Z,14.10
2022-12-31T00:25:45.815Z,14.40
2022-12-31T00:28:13.659Z,14.40
2022-12-31T00:30:42.926Z,14.40
2022-12-31T00:33:10.841Z,14.50
2022-12-31T00:35:38.729Z,14.30
2022-12-31T00:38:06.685Z,14.30
2022-12-31T00:40:34.528Z,14.40
2022-12-31T00:43:02.403Z,14.40
2022-12-31T00:45:30.252Z,14.30
2022-12-31T00:50:27.591Z,14.50
2022-12-31T01:00:19.877Z,14.80
2022-12-31T01:02:47.843Z,14.70
2022-12-31T01:05:15.846Z,14.80
2022-12-31T01:07:45.122Z,14.90
2022-12-31T01:10:12.997Z,15.00
2022-12-31T01:15:09.335Z,15.50
2022-12-31T01:17:37.196Z,15.20
2022-12-31T01:20:05.233Z,15.30
2022-12-31T01:22:33.102Z,15.30
2022-12-31T01:25:02.323Z,15.20
2022-12-31T01:27:30.220Z,15.20
2022-12-31T01:29:58.081Z,15.10
2022-12-31T01:34:54.101Z,14.40
2022-12-31T01:37:21.985Z,14.20
2022-12-31T01:39:49.899Z,14.10
2022-12-31T01:42:19.143Z,14.10
2022-12-31T01:44:56.826Z,14.00
2022-12-31T01:47:31.920Z,14.10
2022-12-31T01:50:02.584Z,13.90
2022-12-31T01:52:31.850Z,13.80
2022-12-31T01:55:01.253Z,13.80
2022-12-31T01:57:30.665Z,13.40
2022-12-31T01:59:59.976Z,13.70
2022-12-31T02:02:28.017Z,13.70
2022-12-31T02:04:58.274Z,13.70
2022-12-31T02:07:26.339Z,13.60
2022-12-31T02:09:54.763Z,13.60
2022-12-31T02:12:22.807Z,13.60
2022-12-31T02:14:54.039Z,13.60
2022-12-31T02:17:26.745Z,13.60
2022-12-31T02:20:09.326Z,13.60
2022-12-31T02:22:46.359Z,13.60
2022-12-31T02:25:32.117Z,13.50
2022-12-31T02:28:05.818Z,13.70
2022-12-31T02:33:13.463Z,13.90
2022-12-31T02:35:46.339Z,14.20
2022-12-31T02:38:16.760Z,14.30
2022-12-31T02:48:21.830Z,14.60
2022-12-31T02:50:56.433Z,14.80
2022-12-31T02:53:31.314Z,14.60
2022-12-31T02:56:02.190Z,14.80
2022-12-31T02:58:46.525Z,14.70
2022-12-31T03:01:34.489Z,14.90
2022-12-31T03:04:25.934Z,14.90
2022-12-31T03:06:54.487Z,15.00
2022-12-31T03:09:22.433Z,14.90
2022-12-31T03:12:22.448Z,15.00
2022-12-31T03:14:50.448Z,14.90
2022-12-31T03:17:18.287Z,14.90
2022-12-31T03:20:04.915Z,14.90
2022-12-31T03:22:33.656Z,15.00
2022-12-31T03:25:20.166Z,15.10
2022-12-31T03:27:48.298Z,15.30
2022-12-31T03:30:17.019Z,15.20
2022-12-31T03:32:45.691Z,15.30
2022-12-31T03:35:15.654Z,15.30
2022-12-31T03:37:43.959Z,15.20
2022-12-31T03:42:40.032Z,15.40
2022-12-31T03:45:08.523Z,15.50
2022-12-31T03:47:36.390Z,15.50
2022-12-31T03:52:33.769Z,15.60
2022-12-31T03:55:02.295Z,15.60
2022-12-31T03:57:30.275Z,15.60
2022-12-31T03:59:58.156Z,15.60
2022-12-31T04:02:28.849Z,15.80
2022-12-31T04:04:57.407Z,15.80
2022-12-31T04:07:25.359Z,15.90
2022-12-31T04:12:24.277Z,15.90
2022-12-31T04:14:52.223Z,15.90
2022-12-31T04:17:20.062Z,15.90
2022-12-31T04:19:47.943Z,15.80
2022-12-31T04:22:15.840Z,15.90
2022-12-31T04:24:44.306Z,16.00
2022-12-31T04:27:12.328Z,16.00
2022-12-31T04:29:41.550Z,15.90
2022-12-31T04:32:09.501Z,16.10
2022-12-31T04:34:37.431Z,15.80
2022-12-31T04:37:05.410Z,16.00
2022-12-31T04:39:33.345Z,16.10
2022-12-31T04:42:01.232Z,16.10
2022-12-31T04:44:29.061Z,16.00
2022-12-31T04:46:58.345Z,16.00
2022-12-31T04:49:26.221Z,16.20
2022-12-31T04:51:54.060Z,16.00
2022-12-31T04:54:21.987Z,16.00
2022-12-31T04:56:49.815Z,15.90
2022-12-31T04:59:17.720Z,16.10
2022-12-31T05:01:45.687Z,15.90
2022-12-31T05:04:15.042Z,15.90
2022-12-31T05:06:42.892Z,15.80
2022-12-31T05:09:10.787Z,15.90
2022-12-31T05:11:39.397Z,15.90
2022-12-31T05:14:07.243Z,16.20
2022-12-31T05:16:35.137Z,16.00
2022-12-31T05:19:04.938Z,16.30
2022-12-31T05:21:34.179Z,16.20
2022-12-31T05:24:02.032Z,16.40
2022-12-31T05:26:29.920Z,16.30
2022-12-31T05:29:00.342Z,16.40
2022-12-31T05:31:28.292Z,16.40
2022-12-31T05:33:56.160Z,16.40
2022-12-31T05:36:23.991Z,16.50
2022-12-31T05:38:53.206Z,16.50
2022-12-31T05:43:49.193Z,16.50
2022-12-31T05:46:17.146Z,16.50
2022-12-31T05:48:45.037Z,16.40
2022-12-31T05:51:12.934Z,16.50
2022-12-31T05:53:40.807Z,16.70
2022-12-31T05:56:10.029Z,16.80
2022-12-31T05:58:37.894Z,16.70
2022-12-31T06:01:05.965Z,16.50
2022-12-31T06:03:33.847Z,16.60
2022-12-31T06:06:02.500Z,16.60
2022-12-31T06:08:30.339Z,16.70
2022-12-31T06:10:58.171Z,16.60
2022-12-31T06:13:27.722Z,16.50
2022-12-31T06:15:55.677Z,16.50
2022-12-31T06:18:23.638Z,16.50
2022-12-31T06:20:51.507Z,16.50
2022-12-31T06:23:19.372Z,16.50
2022-12-31T06:25:47.187Z,16.50
2022-12-31T06:28:20.053Z,16.50
2022-12-31T06:30:49.544Z,16.50
2022-12-31T06:33:17.414Z,16.50
2022-12-31T06:35:45.347Z,16.30
2022-12-31T06:38:13.199Z,16.30
2022-12-31T06:40:41.073Z,16.30
2022-12-31T06:43:08.925Z,16.30
2022-12-31T06:45:36.884Z,16.30
2022-12-31T06:48:06.485Z,16.30
2022-12-31T06:50:34.389Z,16.30
2022-12-31T06:53:02.242Z,16.30
2022-12-31T06:55:30.479Z,16.30
2022-12-31T06:57:58.656Z,16.60
2022-12-31T07:00:26.731Z,16.30
2022-12-31T07:03:11.635Z,16.30
2022-12-31T07:05:47.144Z,16.30
2022-12-31T07:08:22.892Z,16.20
2022-12-31T07:10:54.658Z,16.30
2022-12-31T07:13:44.454Z,16.30
2022-12-31T07:16:17.416Z,16.30
2022-12-31T07:18:47.615Z,16.40
2022-12-31T07:21:16.867Z,16.30
2022-12-31T07:23:44.981Z,16.10
2022-12-31T07:26:17.540Z,15.90
2022-12-31T07:28:51.916Z,15.80
2022-12-31T07:31:26.828Z,15.80
2022-12-31T07:33:59.680Z,15.80
2022-12-31T07:36:32.206Z,15.80
2022-12-31T07:39:03.466Z,15.80
2022-12-31T07:41:40.025Z,15.90
2022-12-31T07:44:09.165Z,15.80
2022-12-31T07:46:42.094Z,15.70
2022-12-31T07:49:13.007Z,15.80
2022-12-31T07:51:41.119Z,15.80
2022-12-31T07:54:13.945Z,15.80
2022-12-31T07:56:42.630Z,15.90
2022-12-31T07:59:19.629Z,16.00
2022-12-31T08:01:52.725Z,15.90
2022-12-31T08:04:26.001Z,15.80
2022-12-31T08:06:57.952Z,15.80
2022-12-31T08:09:29.441Z,15.80
2022-12-31T08:11:58.268Z,15.80
2022-12-31T08:14:26.998Z,15.80
2022-12-31T08:16:55.387Z,15.80
2022-12-31T08:19:26.725Z,15.80
2022-12-31T08:22:02.078Z,15.70
2022-12-31T08:24:36.245Z,15.70
2022-12-31T08:27:09.850Z,15.60
2022-12-31T08:29:41.177Z,15.70
2022-12-31T08:32:11.969Z,15.80
2022-12-31T08:34:46.321Z,15.80
2022-12-31T08:37:16.194Z,15.80
2022-12-31T08:39:55.640Z,15.90
2022-12-31T08:42:26.361Z,16.10
2022-12-31T08:44:57.676Z,16.10
2022-12-31T08:47:31.897Z,16.20
2022-12-31T08:50:05.394Z,16.20
2022-12-31T08:52:33.439Z,16.20
2022-12-31T08:55:02.734Z,16.30
2022-12-31T08:57:34.655Z,16.30
2022-12-31T09:00:05.453Z,16.40
2022-12-31T09:02:46.195Z,16.40
2022-12-31T09:05:18.662Z,16.50
2022-12-31T09:07:57.303Z,16.50
2022-12-31T09:10:28.192Z,16.50
2022-12-31T09:12:59.068Z,16.40
2022-12-31T09:15:30.716Z,16.50
2022-12-31T09:17:58.818Z,16.50
2022-12-31T09:20:41.860Z,16.50
2022-12-31T09:23:11.272Z,16.50
2022-12-31T09:25:42.954Z,16.60
2022-12-31T09:28:15.516Z,16.60
2022-12-31T09:30:47.420Z,16.60
2022-12-31T09:33:22.307Z,16.60
2022-12-31T09:35:53.650Z,16.60
2022-12-31T09:38:23.848Z,16.50
2022-12-31T09:41:21.588Z,16.60
2022-12-31T09:44:05.575Z,16.60
2022-12-31T09:46:44.591Z,16.60
2022-12-31T09:49:24.712Z,16.60
2022-12-31T09:51:58.698Z,16.60
2022-12-31T09:54:34.408Z,16.60
2022-12-31T09:57:13.601Z,16.60
2022-12-31T09:59:45.173Z,16.60
2022-12-31T10:02:20.764Z,16.70
2022-12-31T10:04:53.419Z,16.60
2022-12-31T10:07:31.769Z,16.60
2022-12-31T10:10:06.573Z,16.50
2022-12-31T10:12:45.758Z,16.50
2022-12-31T10:15:24.522Z,16.50
2022-12-31T10:17:57.090Z,16.50
2022-12-31T10:20:28.335Z,16.50
2022-12-31T10:23:11.028Z,16.50
2022-12-31T10:25:51.068Z,16.50
2022-12-31T10:28:25.132Z,16.70
2022-12-31T10:31:00.443Z,16.50
2022-12-31T10:33:36.041Z,16.80
2022-12-31T10:36:09.206Z,16.70
2022-12-31T10:38:44.014Z,16.70
2022-12-31T10:41:36.254Z,16.70
2022-12-31T10:44:19.937Z,16.80
2022-12-31T10:47:16.631Z,16.80
2022-12-31T10:49:57.688Z,16.70
2022-12-31T10:52:48.716Z,16.70
2022-12-31T10:55:47.816Z,16.70
2022-12-31T10:58:36.386Z,16.70
2022-12-31T11:01:09.963Z,16.60
2022-12-31T11:03:55.938Z,16.70
2022-12-31T11:06:56.555Z,16.70
2022-12-31T11:09:43.016Z,16.80
2022-12-31T11:12:17.497Z,16.80
2022-12-31T11:14:52.977Z,16.80
2022-12-31T11:17:25.515Z,16.80
2022-12-31T11:19:58.599Z,16.70
2022-12-31T11:22:40.374Z,16.80
2022-12-31T11:25:23.097Z,16.70
2022-12-31T11:28:05.825Z,16.70
2022-12-31T11:30:38.084Z,16.80
2022-12-31T11:33:15.252Z,16.70
2022-12-31T11:35:50.989Z,16.60
2022-12-31T11:38:23.851Z,16.60
2022-12-31T11:40:57.689Z,16.60
2022-12-31T11:43:29.035Z,16.60
2022-12-31T11:46:24.542Z,16.50
2022-12-31T11:49:02.596Z,16.50
2022-12-31T11:51:37.880Z,16.50
2022-12-31T11:54:19.176Z,16.60
2022-12-31T11:56:48.347Z,16.60
2022-12-31T11:59:19.666Z,16.40
2022-12-31T12:01:52.702Z,16.60
2022-12-31T12:04:21.926Z,16.60
2022-12-31T12:06:49.771Z,16.70
2022-12-31T12:09:28.779Z,16.70
2022-12-31T12:12:00.312Z,16.70
2022-12-31T12:14:32.326Z,16.80
2022-12-31T12:17:04.632Z,16.80
2022-12-31T12:19:36.337Z,16.90
2022-12-31T12:22:11.203Z,16.90
2022-12-31T12:24:39.083Z,17.00
2022-12-31T12:27:21.306Z,17.00
2022-12-31T12:29:49.185Z,17.00
2022-12-31T12:32:18.412Z,16.90
2022-12-31T12:34:50.193Z,17.00
2022-12-31T12:37:28.617Z,16.90
2022-12-31T12:39:57.128Z,16.90
2022-12-31T12:42:25.010Z,16.90
2022-12-31T12:45:01.731Z,16.80
2022-12-31T12:47:29.688Z,16.80
2022-12-31T12:49:59.806Z,16.80
2022-12-31T12:52:39.781Z,16.70
2022-12-31T12:55:14.714Z,16.70
2022-12-31T12:57:46.462Z,16.70
2022-12-31T13:00:17.545Z,16.70
2022-12-31T13:03:15.498Z,16.60
2022-12-31T13:05:49.447Z,16.60
2022-12-31T13:08:23.343Z,16.60
2022-12-31T13:11:01.403Z,16.60
2022-12-31T13:13:32.581Z,16.60
2022-12-31T13:16:05.430Z,16.50
2022-12-31T13:18:40.966Z,16.50
2022-12-31T13:21:20.908Z,16.50
2022-12-31T13:23:50.905Z,16.50
2022-12-31T13:26:22.305Z,16.50
2022-12-31T13:28:51.755Z,16.50
2022-12-31T13:31:21.234Z,16.50
2022-12-31T13:33:51.501Z,16.50
2022-12-31T13:36:22.638Z,16.50
2022-12-31T13:38:52.749Z,16.50
2022-12-31T13:41:22.939Z,16.50
2022-12-31T13:43:54.434Z,16.50
2022-12-31T13:46:26.335Z,16.50
2022-12-31T13:48:55.605Z,16.50
2022-12-31T13:51:28.103Z,16.50
2022-12-31T13:54:00.586Z,16.50
2022-12-31T13:56:31.096Z,16.50
2022-12-31T13:59:02.026Z,16.50
2022-12-31T14:01:34.553Z,16.50
2022-12-31T14:04:06.123Z,16.50
2022-12-31T14:06:37.604Z,16.50
2022-12-31T14:09:05.992Z,16.50
2022-12-31T14:11:45.606Z,16.60
2022-12-31T14:14:19.025Z,16.50
2022-12-31T14:16:50.143Z,16.50
2022-12-31T14:19:25.953Z,16.50
2022-12-31T14:22:04.425Z,16.50
2022-12-31T14:24:40.062Z,16.40
2022-12-31T14:27:10.344Z,16.40
2022-12-31T14:29:41.164Z,16.40
2022-12-31T14:32:36.140Z,16.30
2022-12-31T14:35:08.309Z,16.30
2022-12-31T14:37:40.818Z,16.30
2022-12-31T14:40:17.815Z,16.20
2022-12-31T14:42:50.915Z,16.20
2022-12-31T14:45:23.083Z,16.20
2022-12-31T14:47:53.880Z,16.20
2022-12-31T14:50:23.445Z,16.20
2022-12-31T14:52:54.001Z,16.20
2022-12-31T14:55:23.818Z,16.10
2022-12-31T14:58:26.294Z,16.10
2022-12-31T15:00:40.465Z,16.10
2022-12-31T15:03:23.267Z,16.10
2022-12-31T15:05:52.371Z,16.10
2022-12-31T15:08:32.571Z,16.10
2022-12-31T15:11:15.054Z,16.10
2022-12-31T15:13:51.715Z,16.00
2022-12-31T15:16:25.258Z,16.00
2022-12-31T15:19:03.512Z,15.90
2022-12-31T15:21:38.531Z,16.00
2022-12-31T15:24:18.878Z,15.90
2022-12-31T15:26:50.846Z,15.90
2022-12-31T15:29:26.365Z,15.90
2022-12-31T15:31:54.647Z,15.90
2022-12-31T15:34:26.126Z,15.90
2022-12-31T15:36:55.143Z,15.90
2022-12-31T15:39:26.708Z,15.90
2022-12-31T15:42:36.263Z,16.00
2022-12-31T15:44:46.926Z,16.00
2022-12-31T15:47:17.312Z,16.00
2022-12-31T15:49:46.506Z,16.00
2022-12-31T15:52:15.881Z,16.00
2022-12-31T15:54:45.903Z,16.10
2022-12-31T15:57:17.288Z,16.20
2022-12-31T15:59:45.775Z,16.10
2022-12-31T16:02:20.017Z,16.10
2022-12-31T16:04:48.389Z,16.00
2022-12-31T16:07:16.634Z,16.10
2022-12-31T16:09:48.347Z,16.00
2022-12-31T16:12:19.992Z,16.00
2022-12-31T16:14:51.362Z,16.00
2022-12-31T16:17:27.446Z,16.00
2022-12-31T16:19:55.420Z,16.00
2022-12-31T16:22:26.490Z,16.00
2022-12-31T16:25:29.136Z,15.90
2022-12-31T16:27:44.463Z,15.90
2022-12-31T16:30:20.395Z,15.90
2022-12-31T16:32:49.043Z,15.90
2022-12-31T16:35:24.106Z,15.80
2022-12-31T16:38:01.581Z,16.00
2022-12-31T16:40:31.022Z,15.90
2022-12-31T16:42:58.868Z,15.90
2022-12-31T16:45:30.675Z,15.80
2022-12-31T16:47:59.879Z,15.80
2022-12-31T16:57:57.970Z,16.00
2022-12-31T17:00:26.402Z,15.80
2022-12-31T17:03:01.530Z,15.70
2022-12-31T17:05:29.433Z,15.60
2022-12-31T17:07:57.276Z,15.70
2022-12-31T17:10:26.538Z,15.80
2022-12-31T17:15:45.325Z,15.50
2022-12-31T17:18:18.060Z,15.50
2022-12-31T17:20:46.047Z,15.60
2022-12-31T17:23:19.599Z,15.60
2022-12-31T17:25:47.504Z,15.20
2022-12-31T17:28:23.530Z,15.60
2022-12-31T17:43:26.587Z,15.40
2022-12-31T17:45:56.635Z,15.40
2022-12-31T17:48:24.990Z,15.40
2022-12-31T17:50:53.523Z,15.50
2022-12-31T17:53:21.905Z,15.30
2022-12-31T17:55:50.914Z,15.50
2022-12-31T17:58:22.426Z,15.30
2022-12-31T18:00:54.478Z,15.20
2022-12-31T18:03:22.407Z,15.40
2022-12-31T18:05:50.297Z,15.20
2022-12-31T18:08:18.203Z,15.50
2022-12-31T18:10:46.326Z,15.60
2022-12-31T18:13:15.767Z,15.40
2022-12-31T18:15:43.669Z,15.60
2022-12-31T18:18:25.147Z,15.40
2022-12-31T18:20:54.850Z,15.40
2022-12-31T18:23:24.138Z,15.40
2022-12-31T18:25:52.016Z,15.60
2022-12-31T18:28:19.877Z,15.40
2022-12-31T18:30:48.273Z,15.40
2022-12-31T18:33:19.943Z,15.50
2022-12-31T18:36:08.411Z,15.60
2022-12-31T18:38:37.089Z,15.60
2022-12-31T18:41:05.215Z,16.00
2022-12-31T18:43:33.380Z,15.90
2022-12-31T18:46:01.355Z,15.90
2022-12-31T18:48:29.395Z,16.00
2022-12-31T18:50:58.607Z,16.10
2022-12-31T18:53:26.489Z,16.10
2022-12-31T18:55:55.185Z,16.20
2022-12-31T18:58:23.229Z,16.30
2022-12-31T19:00:51.617Z,16.20
2022-12-31T19:03:21.050Z,16.30
2022-12-31T19:05:50.758Z,16.30
2022-12-31T19:08:20.479Z,16.20
2022-12-31T19:10:48.513Z,16.30
2022-12-31T19:13:17.183Z,16.30
2022-12-31T19:15:46.485Z,16.40
2022-12-31T19:18:14.386Z,16.70
2022-12-31T19:20:42.268Z,16.20
2022-12-31T19:23:14.388Z,16.40
2022-12-31T19:25:43.673Z,16.60
2022-12-31T19:28:15.850Z,16.60
2022-12-31T19:30:43.715Z,16.50
2022-12-31T19:33:11.644Z,16.40
2022-12-31T19:35:39.816Z,16.40
2022-12-31T19:38:12.762Z,16.50
2022-12-31T19:40:41.066Z,16.30
2022-12-31T19:43:12.851Z,16.50
2022-12-31T19:45:41.352Z,16.30
2022-12-31T19:48:11.394Z,16.40
2022-12-31T19:50:41.451Z,16.40
2022-12-31T19:53:11.219Z,16.40
2022-12-31T19:55:39.130Z,16.50
2022-12-31T19:58:07.203Z,16.60
2022-12-31T20:00:36.440Z,16.40
2022-12-31T20:03:04.385Z,16.30
2022-12-31T20:05:32.364Z,16.10
2022-12-31T20:08:00.218Z,16.30
2022-12-31T20:10:28.090Z,16.30
2022-12-31T20:12:55.974Z,16.20
2022-12-31T20:15:23.804Z,16.30
2022-12-31T20:17:53.069Z,16.40
2022-12-31T20:20:20.941Z,16.40
2022-12-31T20:22:48.846Z,16.30
2022-12-31T20:25:16.784Z,16.30
2022-12-31T20:27:44.765Z,16.20
2022-12-31T20:30:12.764Z,16.30
2022-12-31T20:32:40.658Z,16.30
2022-12-31T20:35:09.994Z,16.30
2022-12-31T20:37:37.868Z,16.60
2022-12-31T20:40:06.538Z,16.40
2022-12-31T20:42:36.603Z,16.50
2022-12-31T20:45:04.675Z,16.50
2022-12-31T20:47:32.581Z,16.40
2022-12-31T20:50:11.680Z,16.60
2022-12-31T20:52:42.691Z,16.50
2022-12-31T20:55:11.096Z,16.50
2022-12-31T20:57:38.984Z,16.50
2022-12-31T21:00:07.896Z,16.40
2022-12-31T21:02:42.206Z,16.30
2022-12-31T21:05:11.262Z,16.40
2022-12-31T21:07:39.411Z,16.40
2022-12-31T21:10:09.252Z,16.30
2022-12-31T21:12:44.857Z,16.40
2022-12-31T21:15:13.436Z,16.30
2022-12-31T21:17:41.252Z,16.40
2022-12-31T21:20:09.688Z,16.30
2022-12-31T21:22:37.553Z,16.30
2022-12-31T21:25:06.417Z,16.10
2022-12-31T21:27:36.477Z,16.20
2022-12-31T21:30:20.424Z,16.20
2022-12-31T21:32:48.655Z,16.20
2022-12-31T21:35:42.702Z,16.20
2022-12-31T21:38:05.134Z,16.20
2022-12-31T21:40:33.025Z,16.30
2022-12-31T21:43:02.268Z,16.20
2022-12-31T21:45:30.181Z,16.30
2022-12-31T21:48:16.789Z,16.30
2022-12-31T21:50:46.000Z,16.30
2022-12-31T21:53:16.550Z,16.30
2022-12-31T21:56:04.173Z,16.40
2022-12-31T21:58:33.653Z,16.20
2022-12-31T22:01:19.559Z,16.20
2022-12-31T22:03:47.709Z,16.40
2022-12-31T22:06:20.414Z,16.30
2022-12-31T22:08:49.434Z,16.30
2022-12-31T22:11:17.598Z,16.30
2022-12-31T22:13:47.176Z,16.30
2022-12-31T22:16:15.477Z,16.30
2022-12-31T22:18:44.250Z,16.50
2022-12-31T22:21:18.833Z,16.30
2022-12-31T22:23:47.931Z,16.30
2022-12-31T22:26:16.879Z,16.30
2022-12-31T22:28:45.541Z,16.30
2022-12-31T22:31:15.818Z,16.30
2022-12-31T22:33:44.246Z,16.60
2022-12-31T22:36:13.018Z,16.60
2022-12-31T22:38:40.900Z,16.60
2022-12-31T22:41:09.473Z,16.60
2022-12-31T22:43:38.765Z,16.70
2022-12-31T22:46:07.344Z,16.70
2022-12-31T22:48:36.606Z,16.70
2022-12-31T22:51:04.523Z,16.80
2022-12-31T22:53:32.409Z,16.90
2022-12-31T22:56:00.267Z,17.00
2022-12-31T22:58:28.342Z,16.90
2022-12-31T23:00:56.196Z,16.90
2022-12-31T23:03:24.093Z,17.10
2022-12-31T23:05:53.526Z,17.00
2022-12-31T23:08:23.559Z,17.10
2022-12-31T23:11:01.825Z,17.00
2022-12-31T23:13:50.514Z,16.90
2022-12-31T23:16:36.746Z,16.90
2022-12-31T23:19:22.206Z,17.00
2022-12-31T23:22:08.653Z,16.90
2022-12-31T23:24:36.779Z,16.80
2022-12-31T23:27:05.191Z,16.40
2022-12-31T23:29:33.075Z,16.70
2022-12-31T23:32:00.967Z,16.70
2022-12-31T23:34:28.808Z,16.70
2022-12-31T23:36:58.102Z,16.70
2022-12-31T23:39:25.964Z,16.80
2022-12-31T23:41:53.843Z,16.70
2022-12-31T23:44:21.659Z,16.80
2022-12-31T23:46:49.541Z,16.60
2022-12-31T23:49:17.424Z,16.80
2022-12-31T23:51:45.347Z,16.50
2022-12-31T23:54:14.887Z,16.60
2022-12-31T23:56:42.834Z,16.60
2022-12-31T23:59:11.851Z,16.50
